createdAt,value
2019-04-01T00:02:02.180Z,62.80
2019-04-01T00:04:30.902Z,62.86
2019-04-01T00:06:59.611Z,63.12
2019-04-01T00:09:28.354Z,63.42
2019-04-01T00:11:57.066Z,63.31
2019-04-01T00:14:25.853Z,63.42
2019-04-01T00:16:54.569Z,64.23
2019-04-01T00:19:23.299Z,64.64
2019-04-01T00:21:52.063Z,64.88
2019-04-01T00:24:20.813Z,64.67
2019-04-01T00:26:49.563Z,64.85
2019-04-01T00:29:18.287Z,64.44
2019-04-01T00:31:47.008Z,64.47
2019-04-01T00:34:15.815Z,64.46
2019-04-01T00:36:44.530Z,64.84
2019-04-01T00:39:13.323Z,64.85
2019-04-01T00:41:49.754Z,64.68
2019-04-01T00:44:18.517Z,64.72
2019-04-01T00:46:47.237Z,64.84
2019-04-01T00:49:15.948Z,64.69
2019-04-01T00:51:44.679Z,64.85
2019-04-01T00:54:13.390Z,64.67
2019-04-01T00:56:42.162Z,64.54
2019-04-01T00:59:10.969Z,64.68
2019-04-01T01:01:39.781Z,64.62
2019-04-01T01:04:08.493Z,64.76
2019-04-01T01:06:37.199Z,64.85
2019-04-01T01:09:06.748Z,64.69
2019-04-01T01:11:35.456Z,64.70
2019-04-01T01:14:04.264Z,64.81
2019-04-01T01:16:32.979Z,64.99
2019-04-01T01:19:01.684Z,65.15
2019-04-01T01:21:31.696Z,65.31
2019-04-01T01:24:01.519Z,65.34
2019-04-01T01:26:30.234Z,65.26
2019-04-01T01:28:58.948Z,65.40
2019-04-01T01:31:27.667Z,65.23
2019-04-01T01:33:56.379Z,65.43
2019-04-01T01:36:25.095Z,65.72
2019-04-01T01:39:01.599Z,65.43
2019-04-01T01:41:30.291Z,65.37
2019-04-01T01:43:59.008Z,65.07
2019-04-01T01:46:27.720Z,65.30
2019-04-01T01:48:56.426Z,65.61
2019-04-01T01:51:25.132Z,65.56
2019-04-01T01:54:01.677Z,65.64
2019-04-01T01:56:30.383Z,65.66
2019-04-01T01:59:04.274Z,65.67
2019-04-01T02:01:32.974Z,65.52
2019-04-01T02:04:03.473Z,65.49
2019-04-01T02:06:32.194Z,65.79
2019-04-01T02:09:00.899Z,65.64
2019-04-01T02:11:29.651Z,65.74
2019-04-01T02:14:04.052Z,66.09
2019-04-01T02:16:32.818Z,66.05
2019-04-01T02:19:01.592Z,65.89
2019-04-01T02:21:30.301Z,66.03
2019-04-01T02:24:01.607Z,66.18
2019-04-01T02:26:30.310Z,66.16
2019-04-01T02:29:01.711Z,66.07
2019-04-01T02:31:30.426Z,66.30
2019-04-01T02:33:59.128Z,66.58
2019-04-01T02:36:27.845Z,66.85
2019-04-01T02:38:56.559Z,67.80
2019-04-01T02:41:25.308Z,67.86
2019-04-01T02:43:54.012Z,68.04
2019-04-01T02:46:22.725Z,68.18
2019-04-01T02:48:51.442Z,67.90
2019-04-01T02:51:20.146Z,67.62
2019-04-01T02:53:48.859Z,67.12
2019-04-01T02:56:17.570Z,66.71
2019-04-01T02:58:46.290Z,66.22
2019-04-01T03:01:14.998Z,66.02
2019-04-01T03:03:43.761Z,65.88
2019-04-01T03:06:12.466Z,65.68
2019-04-01T03:08:41.173Z,65.17
2019-04-01T03:11:11.162Z,65.10
2019-04-01T03:13:40.305Z,65.20
2019-04-01T03:16:09.015Z,65.30
2019-04-01T03:18:37.732Z,65.50
2019-04-01T03:21:06.435Z,65.54
2019-04-01T03:23:35.207Z,65.33
2019-04-01T03:26:03.903Z,65.41
2019-04-01T03:28:32.615Z,65.99
2019-04-01T03:31:01.342Z,66.37
2019-04-01T03:33:30.048Z,66.22
2019-04-01T03:36:01.150Z,66.47
2019-04-01T03:38:29.843Z,66.90
2019-04-01T03:40:58.549Z,67.05
2019-04-01T03:43:27.259Z,67.25
2019-04-01T03:45:55.975Z,67.65
2019-04-01T03:48:24.726Z,68.16
2019-04-01T03:50:53.439Z,69.02
2019-04-01T03:53:22.138Z,70.12
2019-04-01T03:55:50.854Z,69.52
2019-04-01T03:58:19.580Z,69.47
2019-04-01T04:00:48.324Z,69.58
2019-04-01T04:03:17.028Z,69.58
2019-04-01T04:05:45.741Z,69.39
2019-04-01T04:08:14.463Z,68.85
2019-04-01T04:10:43.164Z,68.57
2019-04-01T04:13:11.944Z,68.36
2019-04-01T04:15:40.713Z,68.92
2019-04-01T04:18:09.417Z,69.15
2019-04-01T04:20:38.172Z,69.27
2019-04-01T04:23:06.858Z,69.23
2019-04-01T04:25:35.618Z,68.81
2019-04-01T04:28:04.338Z,68.70
2019-04-01T04:30:33.051Z,68.62
2019-04-01T04:33:04.286Z,68.83
2019-04-01T04:35:33.196Z,68.39
2019-04-01T04:38:03.627Z,68.47
2019-04-01T04:40:32.312Z,68.12
2019-04-01T04:43:01.026Z,67.76
2019-04-01T04:45:29.738Z,67.51
2019-04-01T04:47:58.452Z,67.47
2019-04-01T04:50:27.201Z,67.55
2019-04-01T04:53:04.576Z,67.36
2019-04-01T04:55:33.337Z,66.92
2019-04-01T04:58:02.053Z,66.44
2019-04-01T05:00:30.767Z,65.85
2019-04-01T05:03:04.492Z,64.09
2019-04-01T05:05:33.206Z,61.37
2019-04-01T05:08:03.716Z,58.19
2019-04-01T05:10:32.681Z,56.11
2019-04-01T05:13:01.392Z,53.59
2019-04-01T05:15:30.119Z,52.23
2019-04-01T05:17:58.855Z,51.87
2019-04-01T05:20:28.204Z,51.26
2019-04-01T05:22:57.322Z,50.16
2019-04-01T05:25:26.228Z,49.91
2019-04-01T05:28:01.179Z,50.57
2019-04-01T05:30:32.558Z,51.12
2019-04-01T05:33:03.263Z,54.04
2019-04-01T05:35:34.885Z,51.41
2019-04-01T05:38:04.398Z,49.62
2019-04-01T05:40:33.122Z,48.02
2019-04-01T05:43:01.934Z,46.07
2019-04-01T05:45:30.701Z,45.96
2019-04-01T05:47:59.410Z,46.86
2019-04-01T05:50:28.118Z,48.35
2019-04-01T05:53:01.242Z,50.24
2019-04-01T05:55:29.957Z,54.87
2019-04-01T05:58:01.380Z,57.54
2019-04-01T06:00:37.732Z,59.76
2019-04-01T06:03:06.494Z,59.84
2019-04-01T06:05:35.206Z,60.34
2019-04-01T06:08:04.847Z,61.14
2019-04-01T06:10:33.562Z,60.49
2019-04-01T06:13:02.276Z,59.92
2019-04-01T06:15:31.439Z,59.58
2019-04-01T06:18:04.908Z,60.14
2019-04-01T06:20:33.625Z,60.29
2019-04-01T06:23:02.350Z,60.69
2019-04-01T06:25:31.078Z,60.74
2019-04-01T06:28:01.891Z,61.48
2019-04-01T06:30:30.599Z,60.96
2019-04-01T06:32:59.302Z,60.94
2019-04-01T06:35:28.018Z,62.13
2019-04-01T06:37:56.743Z,62.56
2019-04-01T06:40:25.492Z,63.18
2019-04-01T06:42:54.207Z,62.87
2019-04-01T06:45:22.919Z,62.55
2019-04-01T06:47:51.639Z,61.39
2019-04-01T06:50:20.358Z,61.25
2019-04-01T06:52:49.109Z,61.20
2019-04-01T06:55:17.822Z,60.89
2019-04-01T06:57:46.540Z,60.77
2019-04-01T07:00:15.254Z,60.71
2019-04-01T07:02:43.967Z,60.05
2019-04-01T07:05:12.932Z,59.50
2019-04-01T07:07:41.923Z,59.47
2019-04-01T07:10:10.737Z,59.66
2019-04-01T07:12:39.849Z,59.16
2019-04-01T07:15:08.762Z,59.00
2019-04-01T07:17:37.540Z,58.65
2019-04-01T07:20:08.927Z,58.07
2019-04-01T07:22:37.590Z,57.76
2019-04-01T07:25:06.314Z,57.37
2019-04-01T07:27:35.520Z,57.23
2019-04-01T07:30:06.275Z,56.95
2019-04-01T07:32:35.103Z,56.73
2019-04-01T07:35:04.823Z,56.45
2019-04-01T07:37:33.545Z,55.34
2019-04-01T07:40:02.366Z,55.14
2019-04-01T07:42:31.143Z,54.47
2019-04-01T07:44:59.855Z,53.90
2019-04-01T07:47:28.561Z,53.60
2019-04-01T07:50:02.644Z,53.54
2019-04-01T07:52:31.766Z,52.49
2019-04-01T07:55:02.169Z,52.52
2019-04-01T07:57:32.606Z,52.05
2019-04-01T08:00:01.318Z,50.90
2019-04-01T08:02:30.042Z,51.06
2019-04-01T08:04:59.465Z,50.44
2019-04-01T08:07:28.227Z,50.80
2019-04-01T08:10:03.437Z,50.24
2019-04-01T08:12:32.165Z,50.84
2019-04-01T08:15:01.894Z,50.75
2019-04-01T08:17:30.600Z,49.65
2019-04-01T08:20:08.810Z,49.58
2019-04-01T08:22:37.618Z,48.77
2019-04-01T08:25:09.207Z,47.50
2019-04-01T08:27:37.942Z,47.72
2019-04-01T08:30:10.969Z,47.78
2019-04-01T08:32:39.817Z,46.82
2019-04-01T08:35:08.628Z,46.34
2019-04-01T08:37:40.239Z,46.28
2019-04-01T08:40:08.180Z,45.58
2019-04-01T08:42:36.890Z,45.39
2019-04-01T08:45:08.235Z,43.02
2019-04-01T08:47:36.954Z,42.22
2019-04-01T08:50:09.380Z,43.03
2019-04-01T08:52:38.097Z,42.40
2019-04-01T08:55:07.902Z,39.38
2019-04-01T08:57:36.661Z,39.15
2019-04-01T09:00:07.447Z,39.53
2019-04-01T09:02:36.162Z,39.84
2019-04-01T09:05:07.088Z,40.42
2019-04-01T09:07:35.791Z,40.13
2019-04-01T09:10:05.754Z,39.64
2019-04-01T09:12:34.865Z,39.83
2019-04-01T09:15:04.474Z,39.84
2019-04-01T09:17:33.188Z,40.21
2019-04-01T09:20:05.888Z,40.17
2019-04-01T09:22:34.641Z,40.08
2019-04-01T09:25:03.442Z,39.06
2019-04-01T09:27:32.190Z,39.26
2019-04-01T09:30:05.983Z,38.86
2019-04-01T09:32:34.688Z,38.25
2019-04-01T09:35:04.154Z,38.03
2019-04-01T09:37:32.844Z,37.38
2019-04-01T09:40:01.553Z,36.91
2019-04-01T09:42:30.272Z,36.90
2019-04-01T09:44:58.985Z,36.65
2019-04-01T09:47:27.736Z,36.90
2019-04-01T09:49:56.446Z,36.85
2019-04-01T09:52:25.153Z,36.20
2019-04-01T09:54:53.865Z,35.03
2019-04-01T09:57:22.589Z,33.76
2019-04-01T09:59:51.347Z,34.06
2019-04-01T10:02:31.184Z,32.88
2019-04-01T10:04:50.476Z,33.71
2019-04-01T10:07:19.214Z,32.36
2019-04-01T10:09:47.923Z,31.48
2019-04-01T10:12:16.681Z,31.26
2019-04-01T10:14:45.383Z,31.05
2019-04-01T10:17:14.087Z,29.63
2019-04-01T10:19:42.796Z,30.12
2019-04-01T10:22:11.516Z,29.65
2019-04-01T10:24:40.267Z,32.33
2019-04-01T10:27:08.971Z,30.90
2019-04-01T10:29:37.684Z,32.10
2019-04-01T10:32:06.400Z,32.41
2019-04-01T10:34:35.098Z,32.15
2019-04-01T10:37:03.944Z,32.55
2019-04-01T10:39:32.646Z,32.43
2019-04-01T10:42:01.354Z,32.99
2019-04-01T10:44:30.059Z,32.10
2019-04-01T10:46:58.771Z,31.05
2019-04-01T10:49:27.549Z,30.43
2019-04-01T10:51:56.253Z,30.60
2019-04-01T10:54:24.974Z,30.73
2019-04-01T10:56:53.777Z,29.64
2019-04-01T10:59:22.500Z,29.22
2019-04-01T11:01:51.302Z,29.97
2019-04-01T11:04:20.061Z,30.50
2019-04-01T11:06:48.825Z,29.62
2019-04-01T11:09:17.585Z,30.01
2019-04-01T11:11:46.245Z,29.50
2019-04-01T11:14:14.990Z,29.38
2019-04-01T11:16:43.696Z,29.38
2019-04-01T11:19:12.402Z,29.71
2019-04-01T11:21:41.118Z,29.31
2019-04-01T11:24:09.821Z,28.82
2019-04-01T11:26:38.576Z,29.59
2019-04-01T11:29:07.282Z,30.51
2019-04-01T11:31:35.992Z,30.86
2019-04-01T11:34:04.713Z,30.92
2019-04-01T11:36:33.441Z,30.81
2019-04-01T11:39:02.224Z,31.13
2019-04-01T11:41:30.948Z,31.09
2019-04-01T11:43:59.703Z,31.36
2019-04-01T11:46:28.467Z,31.40
2019-04-01T11:48:57.281Z,31.79
2019-04-01T11:51:33.590Z,31.40
2019-04-01T11:53:56.438Z,31.11
2019-04-01T11:56:26.704Z,31.24
2019-04-01T11:59:01.574Z,31.32
2019-04-01T12:01:30.282Z,31.50
2019-04-01T12:04:04.159Z,31.35
2019-04-01T12:06:32.865Z,30.04
2019-04-01T12:09:01.570Z,30.52
2019-04-01T12:11:30.320Z,30.10
2019-04-01T12:13:59.029Z,30.72
2019-04-01T12:16:27.733Z,30.81
2019-04-01T12:19:03.692Z,30.54
2019-04-01T12:21:32.379Z,31.04
2019-04-01T12:24:02.245Z,30.26
2019-04-01T12:26:30.960Z,29.73
2019-04-01T12:28:59.675Z,30.69
2019-04-01T12:31:28.396Z,30.36
2019-04-01T12:33:57.209Z,30.42
2019-04-01T12:36:25.962Z,30.56
2019-04-01T12:38:54.678Z,30.50
2019-04-01T12:41:23.393Z,30.27
2019-04-01T12:43:52.116Z,30.88
2019-04-01T12:46:20.826Z,30.70
2019-04-01T12:48:49.573Z,30.42
2019-04-01T12:51:18.281Z,30.82
2019-04-01T12:53:46.984Z,30.80
2019-04-01T12:56:15.702Z,30.84
2019-04-01T12:58:44.423Z,30.94
2019-04-01T13:01:13.170Z,30.95
2019-04-01T13:03:41.874Z,30.77
2019-04-01T13:06:10.591Z,30.44
2019-04-01T13:08:39.306Z,30.59
2019-04-01T13:11:08.015Z,30.71
2019-04-01T13:13:36.757Z,31.00
2019-04-01T13:16:08.889Z,31.18
2019-04-01T13:18:38.173Z,31.20
2019-04-01T13:21:06.337Z,30.86
2019-04-01T13:23:35.042Z,30.93
2019-04-01T13:26:04.173Z,31.04
2019-04-01T13:28:32.881Z,30.94
2019-04-01T13:31:02.970Z,31.18
2019-04-01T13:33:31.721Z,31.12
2019-04-01T13:36:00.437Z,30.99
2019-04-01T13:38:29.179Z,31.09
2019-04-01T13:40:57.892Z,30.89
2019-04-01T13:43:26.603Z,30.95
2019-04-01T13:46:02.246Z,31.06
2019-04-01T13:48:30.949Z,31.23
2019-04-01T13:51:03.755Z,31.22
2019-04-01T13:53:32.468Z,31.00
2019-04-01T13:56:01.180Z,31.15
2019-04-01T13:58:29.900Z,30.91
2019-04-01T14:00:58.605Z,30.80
2019-04-01T14:03:27.347Z,31.07
2019-04-01T14:05:56.052Z,31.24
2019-04-01T14:08:24.761Z,30.93
2019-04-01T14:10:54.490Z,31.21
2019-04-01T14:13:23.261Z,31.15
2019-04-01T14:15:52.015Z,31.34
2019-04-01T14:18:20.725Z,31.19
2019-04-01T14:20:49.435Z,31.30
2019-04-01T14:23:18.573Z,31.35
2019-04-01T14:25:47.560Z,31.36
2019-04-01T14:28:16.329Z,31.30
2019-04-01T14:30:45.058Z,31.55
2019-04-01T14:33:13.562Z,31.58
2019-04-01T14:35:45.029Z,31.57
2019-04-01T14:38:12.716Z,31.75
2019-04-01T14:40:41.477Z,31.47
2019-04-01T14:43:10.333Z,31.24
2019-04-01T14:45:38.977Z,31.24
2019-04-01T14:48:08.627Z,31.34
2019-04-01T14:50:37.785Z,31.65
2019-04-01T14:53:06.536Z,31.90
2019-04-01T14:55:35.243Z,31.88
2019-04-01T14:58:03.956Z,31.75
2019-04-01T15:00:32.680Z,31.80
2019-04-01T15:03:01.397Z,31.98
2019-04-01T15:05:30.147Z,31.77
2019-04-01T15:07:58.854Z,31.70
2019-04-01T15:10:27.557Z,31.91
2019-04-01T15:13:05.887Z,31.97
2019-04-01T15:15:32.804Z,32.17
2019-04-01T15:18:02.368Z,32.36
2019-04-01T15:20:31.074Z,32.42
2019-04-01T15:22:59.793Z,32.22
2019-04-01T15:25:28.532Z,32.16
2019-04-01T15:27:58.308Z,32.17
2019-04-01T15:30:27.558Z,32.74
2019-04-01T15:33:02.902Z,32.71
2019-04-01T15:35:31.633Z,32.93
2019-04-01T15:38:02.920Z,32.55
2019-04-01T15:40:33.377Z,32.85
2019-04-01T15:43:02.136Z,32.87
2019-04-01T15:45:31.351Z,32.73
2019-04-01T15:48:00.242Z,32.82
2019-04-01T15:50:29.224Z,33.13
2019-04-01T15:52:57.979Z,33.17
2019-04-01T15:55:26.689Z,33.13
2019-04-01T15:58:02.362Z,33.40
2019-04-01T16:00:32.033Z,33.37
2019-04-01T16:03:04.345Z,33.75
2019-04-01T16:05:34.142Z,33.90
2019-04-01T16:08:03.062Z,34.15
2019-04-01T16:10:31.805Z,34.01
2019-04-01T16:13:03.289Z,34.19
2019-04-01T16:15:32.549Z,34.12
2019-04-01T16:18:02.339Z,34.05
2019-04-01T16:20:34.077Z,34.56
2019-04-01T16:23:02.347Z,34.90
2019-04-01T16:25:31.094Z,35.28
2019-04-01T16:28:03.095Z,35.50
2019-04-01T16:30:31.865Z,35.70
2019-04-01T16:33:00.569Z,35.90
2019-04-01T16:35:29.298Z,36.36
2019-04-01T16:37:59.484Z,36.55
2019-04-01T16:40:28.541Z,36.86
2019-04-01T16:42:57.254Z,37.01
2019-04-01T16:45:25.962Z,37.09
2019-04-01T16:48:03.026Z,37.29
2019-04-01T16:50:31.785Z,37.42
2019-04-01T16:53:05.079Z,37.61
2019-04-01T16:55:33.889Z,37.89
2019-04-01T16:58:03.223Z,38.22
2019-04-01T17:00:32.544Z,38.43
2019-04-01T17:03:01.257Z,38.39
2019-04-01T17:05:34.069Z,38.78
2019-04-01T17:08:03.031Z,39.06
2019-04-01T17:10:33.542Z,39.27
2019-04-01T17:13:02.708Z,39.61
2019-04-01T17:15:31.455Z,39.77
2019-04-01T17:18:00.166Z,39.98
2019-04-01T17:20:28.877Z,40.24
2019-04-01T17:23:05.919Z,40.48
2019-04-01T17:25:34.702Z,40.71
2019-04-01T17:28:09.106Z,40.96
2019-04-01T17:30:37.818Z,41.29
2019-04-01T17:33:08.350Z,41.62
2019-04-01T17:35:37.009Z,41.80
2019-04-01T17:38:07.064Z,41.79
2019-04-01T17:40:36.011Z,41.89
2019-04-01T17:43:05.651Z,41.84
2019-04-01T17:45:37.210Z,41.96
2019-04-01T17:48:07.326Z,42.19
2019-04-01T17:50:36.040Z,42.47
2019-04-01T17:53:06.250Z,42.57
2019-04-01T17:55:35.105Z,42.83
2019-04-01T17:58:04.720Z,43.08
2019-04-01T18:00:35.002Z,43.34
2019-04-01T18:03:09.265Z,43.38
2019-04-01T18:05:36.807Z,43.54
2019-04-01T18:08:05.609Z,43.74
2019-04-01T18:10:34.335Z,43.79
2019-04-01T18:13:03.048Z,43.79
2019-04-01T18:15:31.799Z,43.89
2019-04-01T18:18:10.075Z,44.08
2019-04-01T18:20:38.932Z,44.08
2019-04-01T18:23:07.796Z,44.26
2019-04-01T18:25:36.506Z,44.55
2019-04-01T18:28:05.221Z,44.46
2019-04-01T18:30:35.079Z,44.66
2019-04-01T18:33:04.231Z,44.67
2019-04-01T18:35:33.012Z,44.70
2019-04-01T18:38:01.705Z,44.72
2019-04-01T18:40:33.219Z,44.60
2019-04-01T18:43:05.922Z,44.77
2019-04-01T18:45:34.636Z,44.97
2019-04-01T18:48:03.346Z,45.20
2019-04-01T18:50:32.065Z,45.28
2019-04-01T18:53:00.775Z,45.44
2019-04-01T18:55:31.157Z,45.25
2019-04-01T18:58:06.024Z,45.34
2019-04-01T19:00:34.743Z,45.44
2019-04-01T19:03:03.473Z,45.60
2019-04-01T19:05:32.226Z,45.64
2019-04-01T19:08:00.932Z,45.89
2019-04-01T19:10:29.683Z,45.95
2019-04-01T19:13:07.541Z,46.15
2019-04-01T19:15:36.847Z,46.36
2019-04-01T19:18:07.011Z,46.61
2019-04-01T19:20:35.719Z,47.01
2019-04-01T19:23:04.432Z,47.29
2019-04-01T19:25:33.217Z,47.36
2019-04-01T19:28:06.949Z,47.51
2019-04-01T19:30:35.675Z,47.54
2019-04-01T19:33:06.755Z,47.63
2019-04-01T19:35:35.728Z,47.82
2019-04-01T19:38:07.180Z,47.95
2019-04-01T19:40:35.711Z,48.06
2019-04-01T19:43:04.423Z,48.38
2019-04-01T19:45:33.271Z,48.50
2019-04-01T19:48:02.365Z,48.55
2019-04-01T19:50:32.207Z,48.49
2019-04-01T19:53:05.378Z,48.39
2019-04-01T19:55:34.367Z,48.56
2019-04-01T19:58:06.690Z,48.51
2019-04-01T20:00:35.396Z,48.60
2019-04-01T20:03:04.142Z,48.62
2019-04-01T20:05:32.868Z,48.90
2019-04-01T20:08:01.595Z,49.18
2019-04-01T20:10:30.312Z,49.31
2019-04-01T20:13:05.926Z,49.26
2019-04-01T20:15:34.643Z,49.43
2019-04-01T20:18:03.613Z,49.39
2019-04-01T20:20:32.334Z,49.31
2019-04-01T20:23:01.046Z,49.41
2019-04-01T20:25:29.766Z,49.46
2019-04-01T20:28:05.076Z,49.56
2019-04-01T20:30:33.906Z,49.59
2019-04-01T20:33:02.630Z,49.84
2019-04-01T20:35:34.385Z,49.98
2019-04-01T20:38:02.909Z,50.44
2019-04-01T20:40:31.616Z,50.55
2019-04-01T20:43:00.330Z,50.32
2019-04-01T20:45:29.048Z,50.90
2019-04-01T20:47:57.758Z,50.69
2019-04-01T20:50:28.018Z,50.97
2019-04-01T20:53:05.191Z,51.00
2019-04-01T20:55:33.904Z,50.84
2019-04-01T20:58:03.912Z,50.64
2019-04-01T21:00:32.714Z,50.85
2019-04-01T21:03:01.690Z,51.11
2019-04-01T21:05:30.513Z,50.89
2019-04-01T21:07:59.227Z,51.02
2019-04-01T21:10:27.986Z,51.23
2019-04-01T21:12:56.707Z,51.38
2019-04-01T21:15:25.423Z,51.61
2019-04-01T21:17:54.133Z,51.50
2019-04-01T21:20:22.845Z,51.39
2019-04-01T21:22:51.548Z,51.42
2019-04-01T21:25:20.315Z,51.29
2019-04-01T21:27:49.025Z,51.33
2019-04-01T21:30:17.834Z,51.37
2019-04-01T21:32:46.582Z,51.13
2019-04-01T21:35:15.297Z,51.21
2019-04-01T21:37:44.016Z,50.94
2019-04-01T21:40:13.078Z,51.02
2019-04-01T21:42:43.134Z,50.96
2019-04-01T21:45:12.278Z,51.16
2019-04-01T21:47:41.201Z,51.55
2019-04-01T21:50:10.520Z,51.71
2019-04-01T21:52:39.225Z,51.79
2019-04-01T21:55:08.611Z,51.97
2019-04-01T21:57:37.604Z,51.63
2019-04-01T22:00:17.891Z,51.90
2019-04-01T22:02:45.713Z,51.86
2019-04-01T22:05:14.725Z,51.80
2019-04-01T22:07:43.480Z,51.99
2019-04-01T22:10:12.287Z,52.04
2019-04-01T22:12:40.986Z,52.30
2019-04-01T22:15:09.911Z,52.50
2019-04-01T22:17:38.653Z,52.67
2019-04-01T22:20:07.795Z,52.71
2019-04-01T22:22:37.449Z,53.18
2019-04-01T22:25:06.185Z,53.23
2019-04-01T22:27:34.905Z,53.47
2019-04-01T22:30:07.065Z,53.65
2019-04-01T22:32:35.803Z,53.56
2019-04-01T22:35:07.975Z,53.84
2019-04-01T22:37:37.482Z,53.87
2019-04-01T22:40:07.643Z,53.88
2019-04-01T22:42:36.345Z,54.23
2019-04-01T22:45:07.007Z,54.73
2019-04-01T22:47:35.712Z,55.27
2019-04-01T22:50:06.757Z,55.20
2019-04-01T22:52:35.828Z,55.43
2019-04-01T22:55:05.932Z,55.89
2019-04-01T22:57:34.762Z,56.56
2019-04-01T23:00:03.883Z,56.79
2019-04-01T23:02:32.590Z,56.99
2019-04-01T23:05:05.413Z,57.21
2019-04-01T23:07:34.122Z,57.40
2019-04-01T23:10:02.836Z,57.44
2019-04-01T23:12:31.558Z,57.41
2019-04-01T23:15:00.265Z,57.46
2019-04-01T23:17:29.010Z,57.54
2019-04-01T23:20:06.419Z,57.70
2019-04-01T23:22:35.167Z,57.84
2019-04-01T23:25:04.278Z,57.68
2019-04-01T23:27:32.995Z,57.79
2019-04-01T23:30:09.394Z,57.60
2019-04-01T23:32:38.102Z,57.58
2019-04-01T23:35:08.169Z,57.62
2019-04-01T23:37:38.082Z,57.71
2019-04-01T23:40:07.682Z,57.80
2019-04-01T23:42:37.963Z,57.76
2019-04-01T23:45:08.874Z,57.89
2019-04-01T23:47:37.645Z,57.83
2019-04-01T23:50:09.899Z,58.13
2019-04-01T23:52:38.863Z,57.69
2019-04-01T23:55:08.168Z,57.53
2019-04-01T23:57:36.875Z,57.33
